Asheboro, NC (27203)

6:13 AM EST on January 19, 2018 (GMT -0500)
Windsor Park | | Change Station
Active Advisory: Winter Weather Advisory

Elev 673 ft 35.76 °N, 79.79 °W | Updated 6 seconds ago

Clear
Clear
16.5 °F
Feels Like 16 °F
N
0.0
Wind Variable Wind from SSW
Gusts 0.0 mph

Today
High -- | Low -- °F
--% Chance of Precip.
Yesterday
High -- | Low -- °F
Precip. -- in
Pressure 30.22 in
Visibility 7.0 miles
Clouds Clear
Windchill 16 °F
Dew Point 15 °F
Humidity 95%
Rainfall 0.00 in
Snow Depth Not available.
7:27 AM 5:33 PM
Waxing Crescent, 5% visible
METAR KHBI 191115Z AUTO 00000KT 7SM CLR M08/M08 A3022 RMK AO2 T10761078
Pressure 30.22 in
Visibility 7.0 miles
Clouds Clear
Windchill 16 °F
Dew Point 15 °F
Humidity 95%
Rainfall 0.00 in
Snow Depth Not available.
7:27 AM 5:33 PM
Waxing Crescent, 5% visible
METAR KHBI 191115Z AUTO 00000KT 7SM CLR M08/M08 A3022 RMK AO2 T10761078

Get Your Daily Forecast Email!

Thanks for signing up!

Be on the lookout for a verification email in your inbox.

You'll start receiving severe weather alerts in your inbox..

×

10-Day Weather Forecast

Almanac

Astronomy

Jan. 19, 2018 Rise Set
Actual Time
Civil Twilight
Nautical Twilight
Astronomical Twilight
Moon
Length of Visible Light
Length of Day
Tomorrow will be .
, % of the Moon is Illuminated

Today's Extremes

State Highs State Lows

Community

WunderPhotos

Category 6

Welcome to Category 6. This is the collective home for Weather Underground's featured writeups by Dr. Jeff Masters (right), Bob Henson (left), Chris Burt, and other regular contributors.

Nearby

Air Quality

  Air Quality AQ Index Pollutant
Not available.

Snow Depth

Station Depth Elevation

Earthquake Activity

City Distance Mag. Time & Date
Minimum magnitude displayed is 2.5.

Coastal Water Temperatures

Place Temperature

Stations

Nearby Weather Stations

Station Location Temp. Windchill Dew Point Humidity Wind Precip. Elev Updated Type
                   

Watches & Warnings

Winter Weather Advisory
Issued: 3:30 AM EST Jan. 19, 2018 – National Weather Service

... Winter Weather Advisory remains in effect until noon EST
today...

* what... ice and snow-covered roads will create dangerous travel
conditions through midday. Also, areas of black ice will cover
portions of area interstates, bridges, overpasses, streets, side
walks, and parking lots. Rural routes will also be problematic
through noon.

* Where... much of central North Carolina.

* When... until noon EST Friday.

* Additional details... temperatures will warm with sunshine today.
However, it will be late morning and early afternoon before the
thaw really begins.

Precautionary/preparedness actions...

A Winter Weather Advisory means that travel will remain hazardous
due to icy roads and compacted snow. Motorists are urged to use
extreme caution, or avoid travel if possible. The latest Road
conditions for North Carolina can be found online at drivenc.Gov.



Badgett